Dewitt, MI (48820)

3:12 PM EST on February 01, 2015 (GMT -0500)
Capital City | Change Station
CLOSE
Current Station
Airport
Location: Lansing,
Elevation: 873 ft
Nearby Weather Stations
Active Advisory: Winter Storm Warning

Elev 873 ft 42.78 °N, 84.58 °W | Updated 19 minutes ago

Snow
Snow
16 °F
Feels Like 0 °F
N
18
Wind Variable Wind from NE
Gusts 29 mph

Today
High -- | Low -- °F
--% Chance of Precip.
Yesterday
High -- | Low -- °F
Precip. -- in
7:53 AM 5:51 PM
Waxing Gibbous, 96% visible
Pressure 29.97 in
Visibility 0.2 miles
Clouds
Windchill 0 °F
Dew Point 12 °F
Humidity 84%
Rainfall 0.24 in
Snow Depth Not available.
UV Not available.
Pollen .10 out of 12
Air Quality Not available.
Flu Activity Not available.
METAR KLAN 011953Z 05016G25KT 1/4SM R28L/2800V3000FT SN FZFG VV009 M09/M11 A2992 RMK AO2 PK WND 05027/1917 SLP147 P0003 T10891111

More Conditions Fewer Conditions

Pressure 29.97 in
Visibility 0.2 miles
Clouds
Windchill 0 °F
Dew Point 12 °F
Humidity 84%
Rainfall 0.24 in
Snow Depth Not available.
UV Not available.
Pollen .10 out of 12
Air Quality Not available.
Flu Activity Not available.
METAR KLAN 011953Z 05016G25KT 1/4SM R28L/2800V3000FT SN FZFG VV009 M09/M11 A2992 RMK AO2 PK WND 05027/1917 SLP147 P0003 T10891111

More Conditions Fewer Conditions

10-Day Weather Forecast

Almanac

Astronomy

Feb. 01, 2015 Rise Set
Actual Time
Civil Twilight
Nautical Twilight
Astronomical Twilight
Moon
Length of Visible Light
Length of Day
Tomorrow will be .
, % of the Moon is Illuminated

Today's Extremes

State Highs State Lows

Community

WunderPhotos

Upload Photos

1,792,485 photos uploaded!

WunderBlogs® & News

Nearby

Air Quality

  Air Quality AQ Index Pollutant
Not available.

Snow Depth

Station Depth Elevation

Earthquake Activity

City Distance Mag. Time & Date
Minimum magnitude displayed is 2.5.

Coastal Water Temperatures

Place Temperature

Nearby Weather Stations